sensor_id;sensor_type;location;lat;lon;timestamp;pressure;altitude;pressure_sealevel;temperature;humidity
51526;BME280;37611;51.794;21.590;2023-02-22T00:03:03;99741.75;;;3.87;100.00
51526;BME280;37611;51.794;21.590;2023-02-22T00:07:06;99741.52;;;3.87;100.00
51526;BME280;37611;51.794;21.590;2023-02-22T00:11:08;99746.48;;;3.86;100.00
51526;BME280;37611;51.794;21.590;2023-02-22T00:15:09;99744.34;;;3.85;100.00
51526;BME280;37611;51.794;21.590;2023-02-22T00:19:13;99751.74;;;3.81;100.00
51526;BME280;37611;51.794;21.590;2023-02-22T00:23:17;99758.64;;;3.79;100.00
51526;BME280;37611;51.794;21.590;2023-02-22T00:27:19;99761.66;;;3.75;100.00
51526;BME280;37611;51.794;21.590;2023-02-22T00:31:21;99766.30;;;3.71;100.00
51526;BME280;37611;51.794;21.590;2023-02-22T00:35:25;99773.40;;;3.69;100.00
51526;BME280;37611;51.794;21.590;2023-02-22T00:39:28;99773.73;;;3.69;100.00
51526;BME280;37611;51.794;21.590;2023-02-22T00:43:29;99774.98;;;3.69;100.00
51526;BME280;37611;51.794;21.590;2023-02-22T00:47:31;99777.34;;;3.67;100.00
51526;BME280;37611;51.794;21.590;2023-02-22T00:51:33;99774.81;;;3.68;100.00
51526;BME280;37611;51.794;21.590;2023-02-22T00:55:36;99779.56;;;3.67;100.00
51526;BME280;37611;51.794;21.590;2023-02-22T00:59:38;99780.95;;;3.67;100.00
51526;BME280;37611;51.794;21.590;2023-02-22T01:03:39;99784.52;;;3.64;100.00
51526;BME280;37611;51.794;21.590;2023-02-22T01:07:41;99786.90;;;3.57;100.00
51526;BME280;37611;51.794;21.590;2023-02-22T01:11:43;99793.03;;;3.52;100.00
51526;BME280;37611;51.794;21.590;2023-02-22T01:15:45;99791.23;;;3.45;100.00
51526;BME280;37611;51.794;21.590;2023-02-22T01:19:47;99797.43;;;3.34;100.00
51526;BME280;37611;51.794;21.590;2023-02-22T01:23:49;99803.26;;;3.28;100.00
51526;BME280;37611;51.794;21.590;2023-02-22T01:27:52;99809.39;;;3.22;100.00
51526;BME280;37611;51.794;21.590;2023-02-22T01:31:55;99815.37;;;3.10;100.00
51526;BME280;37611;51.794;21.590;2023-02-22T01:35:57;99815.38;;;3.01;100.00
51526;BME280;37611;51.794;21.590;2023-02-22T01:39:58;99819.46;;;2.94;100.00
51526;BME280;37611;51.794;21.590;2023-02-22T01:48:28;99828.81;;;2.82;100.00
51526;BME280;37611;51.794;21.590;2023-02-22T01:52:30;99831.06;;;2.74;100.00
51526;BME280;37611;51.794;21.590;2023-02-22T01:56:36;99833.31;;;2.69;100.00
51526;BME280;37611;51.794;21.590;2023-02-22T02:00:39;99836.71;;;2.65;100.00
51526;BME280;37611;51.794;21.590;2023-02-22T02:04:41;99837.40;;;2.60;100.00
51526;BME280;37611;51.794;21.590;2023-02-22T02:09:04;99840.91;;;2.57;100.00
51526;BME280;37611;51.794;21.590;2023-02-22T02:13:11;99849.27;;;2.54;100.00
51526;BME280;37611;51.794;21.590;2023-02-22T02:17:15;99849.30;;;2.51;100.00
51526;BME280;37611;51.794;21.590;2023-02-22T02:21:43;99855.27;;;2.49;100.00
51526;BME280;37611;51.794;21.590;2023-02-22T02:30:44;99859.17;;;2.35;100.00
51526;BME280;37611;51.794;21.590;2023-02-22T02:35:14;99865.77;;;2.24;100.00
51526;BME280;37611;51.794;21.590;2023-02-22T02:39:28;99868.00;;;2.16;100.00
51526;BME280;37611;51.794;21.590;2023-02-22T02:47:57;99873.25;;;2.02;100.00
51526;BME280;37611;51.794;21.590;2023-02-22T02:52:02;99875.53;;;1.99;100.00
51526;BME280;37611;51.794;21.590;2023-02-22T02:56:05;99874.88;;;1.96;100.00
51526;BME280;37611;51.794;21.590;2023-02-22T03:00:08;99876.37;;;1.92;100.00
51526;BME280;37611;51.794;21.590;2023-02-22T03:04:52;99878.63;;;1.89;100.00
51526;BME280;37611;51.794;21.590;2023-02-22T03:09:15;99883.17;;;1.85;100.00
51526;BME280;37611;51.794;21.590;2023-02-22T03:13:45;99887.02;;;1.79;100.00
51526;BME280;37611;51.794;21.590;2023-02-22T03:22:19;99899.76;;;1.66;100.00
51526;BME280;37611;51.794;21.590;2023-02-22T03:26:30;99900.05;;;1.62;100.00
51526;BME280;37611;51.794;21.590;2023-02-22T03:30:40;99904.63;;;1.63;100.00
51526;BME280;37611;51.794;21.590;2023-02-22T03:34:47;99910.75;;;1.67;100.00
51526;BME280;37611;51.794;21.590;2023-02-22T03:38:54;99911.11;;;1.69;100.00
51526;BME280;37611;51.794;21.590;2023-02-22T03:43:05;99916.98;;;1.72;100.00
51526;BME280;37611;51.794;21.590;2023-02-22T03:47:10;99922.34;;;1.77;100.00
51526;BME280;37611;51.794;21.590;2023-02-22T03:51:15;99924.67;;;1.82;100.00
51526;BME280;37611;51.794;21.590;2023-02-22T03:55:18;99926.60;;;1.86;100.00
51526;BME280;37611;51.794;21.590;2023-02-22T03:59:20;99934.81;;;1.90;100.00
51526;BME280;37611;51.794;21.590;2023-02-22T04:03:26;99933.16;;;1.92;100.00
51526;BME280;37611;51.794;21.590;2023-02-22T04:07:28;99932.58;;;1.93;100.00
51526;BME280;37611;51.794;21.590;2023-02-22T04:11:48;99930.90;;;1.84;100.00
51526;BME280;37611;51.794;21.590;2023-02-22T04:15:50;99933.96;;;1.74;100.00
51526;BME280;37611;51.794;21.590;2023-02-22T04:19:51;99932.98;;;1.62;100.00
51526;BME280;37611;51.794;21.590;2023-02-22T04:23:53;99931.80;;;1.54;100.00
51526;BME280;37611;51.794;21.590;2023-02-22T04:27:55;99935.41;;;1.48;100.00
51526;BME280;37611;51.794;21.590;2023-02-22T04:31:57;99942.20;;;1.44;100.00
51526;BME280;37611;51.794;21.590;2023-02-22T04:35:59;99952.27;;;1.38;100.00
51526;BME280;37611;51.794;21.590;2023-02-22T04:40:01;99958.48;;;1.32;100.00
51526;BME280;37611;51.794;21.590;2023-02-22T04:44:03;99965.78;;;1.29;100.00
51526;BME280;37611;51.794;21.590;2023-02-22T04:48:04;99960.02;;;1.21;100.00
51526;BME280;37611;51.794;21.590;2023-02-22T04:52:06;99956.61;;;1.20;100.00
51526;BME280;37611;51.794;21.590;2023-02-22T04:56:08;99960.55;;;1.21;100.00
51526;BME280;37611;51.794;21.590;2023-02-22T05:00:14;99964.27;;;1.19;100.00
51526;BME280;37611;51.794;21.590;2023-02-22T05:04:16;99968.09;;;1.19;100.00
51526;BME280;37611;51.794;21.590;2023-02-22T05:08:18;99970.33;;;1.13;100.00
51526;BME280;37611;51.794;21.590;2023-02-22T05:12:20;99973.23;;;1.06;100.00
51526;BME280;37611;51.794;21.590;2023-02-22T05:16:22;99977.34;;;1.00;100.00
51526;BME280;37611;51.794;21.590;2023-02-22T05:20:30;99980.82;;;1.00;100.00
51526;BME280;37611;51.794;21.590;2023-02-22T05:24:32;99982.89;;;1.02;100.00
51526;BME280;37611;51.794;21.590;2023-02-22T05:28:33;99988.00;;;1.09;100.00
51526;BME280;37611;51.794;21.590;2023-02-22T05:32:35;99995.14;;;1.16;100.00
51526;BME280;37611;51.794;21.590;2023-02-22T05:36:37;99998.11;;;1.22;100.00
51526;BME280;37611;51.794;21.590;2023-02-22T05:40:39;100008.52;;;1.27;100.00
51526;BME280;37611;51.794;21.590;2023-02-22T05:44:41;100016.17;;;1.28;100.00
51526;BME280;37611;51.794;21.590;2023-02-22T05:48:43;100025.17;;;1.25;100.00
51526;BME280;37611;51.794;21.590;2023-02-22T05:52:46;100031.33;;;1.09;100.00
51526;BME280;37611;51.794;21.590;2023-02-22T05:56:48;100036.64;;;0.91;100.00
51526;BME280;37611;51.794;21.590;2023-02-22T06:00:50;100034.39;;;0.71;100.00
51526;BME280;37611;51.794;21.590;2023-02-22T06:04:52;100042.15;;;0.53;100.00
51526;BME280;37611;51.794;21.590;2023-02-22T06:08:54;100050.04;;;0.47;100.00
51526;BME280;37611;51.794;21.590;2023-02-22T06:12:56;100049.27;;;0.46;100.00
51526;BME280;37611;51.794;21.590;2023-02-22T06:16:58;100054.77;;;0.46;100.00
51526;BME280;37611;51.794;21.590;2023-02-22T06:21:01;100055.52;;;0.48;100.00
51526;BME280;37611;51.794;21.590;2023-02-22T06:25:04;100059.38;;;0.53;100.00
51526;BME280;37611;51.794;21.590;2023-02-22T06:29:06;100063.23;;;0.61;100.00
51526;BME280;37611;51.794;21.590;2023-02-22T06:33:09;100072.15;;;0.65;100.00
51526;BME280;37611;51.794;21.590;2023-02-22T06:37:11;100077.96;;;0.71;100.00
51526;BME280;37611;51.794;21.590;2023-02-22T06:41:13;100084.05;;;0.80;100.00
51526;BME280;37611;51.794;21.590;2023-02-22T06:45:16;100090.17;;;0.87;100.00
51526;BME280;37611;51.794;21.590;2023-02-22T06:49:19;100092.28;;;0.92;100.00
51526;BME280;37611;51.794;21.590;2023-02-22T06:53:20;100096.94;;;0.98;100.00
51526;BME280;37611;51.794;21.590;2023-02-22T06:57:22;100100.17;;;1.02;100.00
51526;BME280;37611;51.794;21.590;2023-02-22T07:01:24;100109.76;;;1.09;100.00
51526;BME280;37611;51.794;21.590;2023-02-22T07:05:27;100115.83;;;1.14;100.00
51526;BME280;37611;51.794;21.590;2023-02-22T07:09:29;100121.30;;;1.21;100.00
51526;BME280;37611;51.794;21.590;2023-02-22T07:13:31;100131.09;;;1.31;100.00
51526;BME280;37611;51.794;21.590;2023-02-22T07:17:32;100132.07;;;1.32;100.00
51526;BME280;37611;51.794;21.590;2023-02-22T07:21:34;100133.52;;;1.36;100.00
51526;BME280;37611;51.794;21.590;2023-02-22T07:25:36;100137.80;;;1.42;100.00
51526;BME280;37611;51.794;21.590;2023-02-22T07:29:38;100139.48;;;1.49;100.00
51526;BME280;37611;51.794;21.590;2023-02-22T07:33:45;100137.81;;;1.60;100.00
51526;BME280;37611;51.794;21.590;2023-02-22T07:37:47;100138.13;;;1.72;100.00
51526;BME280;37611;51.794;21.590;2023-02-22T07:41:48;100132.19;;;1.76;100.00
51526;BME280;37611;51.794;21.590;2023-02-22T07:45:52;100138.55;;;1.79;100.00
51526;BME280;37611;51.794;21.590;2023-02-22T07:49:55;100142.42;;;1.86;100.00
51526;BME280;37611;51.794;21.590;2023-02-22T07:53:56;100143.08;;;1.90;100.00
51526;BME280;37611;51.794;21.590;2023-02-22T07:58:00;100144.05;;;2.00;100.00
51526;BME280;37611;51.794;21.590;2023-02-22T08:02:02;100144.24;;;2.10;100.00
51526;BME280;37611;51.794;21.590;2023-02-22T08:06:05;100142.43;;;2.20;100.00
51526;BME280;37611;51.794;21.590;2023-02-22T08:10:09;100141.80;;;2.28;100.00
51526;BME280;37611;51.794;21.590;2023-02-22T08:14:14;100144.96;;;2.38;100.00
51526;BME280;37611;51.794;21.590;2023-02-22T08:18:18;100148.46;;;2.45;100.00
51526;BME280;37611;51.794;21.590;2023-02-22T08:22:20;100148.63;;;2.54;100.00
51526;BME280;37611;51.794;21.590;2023-02-22T08:26:22;100145.72;;;2.61;100.00
51526;BME280;37611;51.794;21.590;2023-02-22T08:30:27;100158.42;;;2.57;100.00
51526;BME280;37611;51.794;21.590;2023-02-22T08:34:29;100157.36;;;2.50;100.00
51526;BME280;37611;51.794;21.590;2023-02-22T08:38:31;100155.98;;;2.36;100.00
51526;BME280;37611;51.794;21.590;2023-02-22T08:42:34;100161.89;;;2.18;100.00
51526;BME280;37611;51.794;21.590;2023-02-22T08:46:36;100165.35;;;2.18;100.00
51526;BME280;37611;51.794;21.590;2023-02-22T08:50:37;100169.50;;;2.32;100.00
51526;BME280;37611;51.794;21.590;2023-02-22T08:54:44;100171.69;;;2.36;100.00
51526;BME280;37611;51.794;21.590;2023-02-22T08:58:47;100176.52;;;2.33;100.00
51526;BME280;37611;51.794;21.590;2023-02-22T09:02:51;100174.70;;;2.37;100.00
51526;BME280;37611;51.794;21.590;2023-02-22T09:06:53;100177.48;;;2.40;100.00
51526;BME280;37611;51.794;21.590;2023-02-22T09:10:54;100183.98;;;2.44;100.00
51526;BME280;37611;51.794;21.590;2023-02-22T09:14:56;100187.05;;;2.47;100.00
51526;BME280;37611;51.794;21.590;2023-02-22T09:18:58;100195.47;;;2.40;99.45
51526;BME280;37611;51.794;21.590;2023-02-22T09:23:02;100198.20;;;2.35;99.28
51526;BME280;37611;51.794;21.590;2023-02-22T09:27:04;100197.97;;;2.36;100.00
51526;BME280;37611;51.794;21.590;2023-02-22T09:31:07;100196.13;;;2.43;100.00
51526;BME280;37611;51.794;21.590;2023-02-22T09:35:09;100201.49;;;2.51;100.00
51526;BME280;37611;51.794;21.590;2023-02-22T09:39:11;100204.17;;;2.53;99.40
51526;BME280;37611;51.794;21.590;2023-02-22T09:43:20;100209.59;;;2.57;99.01
51526;BME280;37611;51.794;21.590;2023-02-22T09:47:40;100210.13;;;2.65;99.06
51526;BME280;37611;51.794;21.590;2023-02-22T09:55:53;100206.91;;;2.72;96.42
51526;BME280;37611;51.794;21.590;2023-02-22T10:00:17;100207.42;;;2.67;95.16
51526;BME280;37611;51.794;21.590;2023-02-22T10:04:24;100200.30;;;2.70;95.62
51526;BME280;37611;51.794;21.590;2023-02-22T10:08:32;100201.98;;;2.82;94.82
51526;BME280;37611;51.794;21.590;2023-02-22T10:12:50;100198.92;;;2.92;93.97
51526;BME280;37611;51.794;21.590;2023-02-22T10:25:30;100193.95;;;3.12;92.47
51526;BME280;37611;51.794;21.590;2023-02-22T10:29:42;100198.58;;;3.10;90.20
51526;BME280;37611;51.794;21.590;2023-02-22T10:34:01;100198.13;;;3.12;90.38
51526;BME280;37611;51.794;21.590;2023-02-22T10:38:25;100203.92;;;3.11;89.58
51526;BME280;37611;51.794;21.590;2023-02-22T10:42:28;100202.27;;;3.15;90.60
51526;BME280;37611;51.794;21.590;2023-02-22T10:46:32;100204.81;;;3.19;90.25
51526;BME280;37611;51.794;21.590;2023-02-22T10:50:37;100205.64;;;3.17;90.36
51526;BME280;37611;51.794;21.590;2023-02-22T10:54:44;100207.77;;;3.18;89.28
51526;BME280;37611;51.794;21.590;2023-02-22T10:58:56;100203.31;;;3.20;89.94
51526;BME280;37611;51.794;21.590;2023-02-22T11:03:05;100204.45;;;3.19;90.49
51526;BME280;37611;51.794;21.590;2023-02-22T11:11:25;100201.98;;;3.09;87.55
51526;BME280;37611;51.794;21.590;2023-02-22T11:15:29;100197.84;;;3.14;89.93
51526;BME280;37611;51.794;21.590;2023-02-22T11:19:32;100194.11;;;3.16;88.20
51526;BME280;37611;51.794;21.590;2023-02-22T11:23:36;100191.81;;;3.19;88.90
51526;BME280;37611;51.794;21.590;2023-02-22T11:27:41;100194.94;;;3.16;89.22
51526;BME280;37611;51.794;21.590;2023-02-22T11:31:45;100196.95;;;3.09;88.28
51526;BME280;37611;51.794;21.590;2023-02-22T11:44:31;100196.63;;;3.09;88.85
51526;BME280;37611;51.794;21.590;2023-02-22T11:48:35;100193.14;;;3.12;88.92
51526;BME280;37611;51.794;21.590;2023-02-22T11:52:44;100196.98;;;3.17;88.41
51526;BME280;37611;51.794;21.590;2023-02-22T11:56:49;100197.72;;;3.18;87.16
51526;BME280;37611;51.794;21.590;2023-02-22T12:01:00;100194.20;;;3.17;87.08
51526;BME280;37611;51.794;21.590;2023-02-22T12:18:36;100195.62;;;3.22;86.36
51526;BME280;37611;51.794;21.590;2023-02-22T12:22:38;100197.98;;;3.25;87.23
51526;BME280;37611;51.794;21.590;2023-02-22T12:26:48;100198.02;;;3.35;88.09
51526;BME280;37611;51.794;21.590;2023-02-22T12:31:14;100197.14;;;3.40;87.11
51526;BME280;37611;51.794;21.590;2023-02-22T12:35:35;100205.80;;;3.38;87.70
51526;BME280;37611;51.794;21.590;2023-02-22T12:44:07;100211.17;;;3.24;86.04
51526;BME280;37611;51.794;21.590;2023-02-22T12:52:54;100219.10;;;3.01;87.08
51526;BME280;37611;51.794;21.590;2023-02-22T12:57:04;100231.23;;;2.79;86.42
51526;BME280;37611;51.794;21.590;2023-02-22T13:01:15;100233.30;;;2.57;86.57
51526;BME280;37611;51.794;21.590;2023-02-22T13:05:20;100239.90;;;2.45;88.04
51526;BME280;37611;51.794;21.590;2023-02-22T13:09:47;100241.40;;;2.46;88.52
51526;BME280;37611;51.794;21.590;2023-02-22T13:14:20;100247.38;;;2.48;88.63
51526;BME280;37611;51.794;21.590;2023-02-22T13:18:48;100250.41;;;2.46;88.85
51526;BME280;37611;51.794;21.590;2023-02-22T13:23:04;100252.02;;;2.33;88.71
51526;BME280;37611;51.794;21.590;2023-02-22T13:27:49;100254.10;;;2.19;88.89
51526;BME280;37611;51.794;21.590;2023-02-22T13:32:00;100256.25;;;2.01;89.41
51526;BME280;37611;51.794;21.590;2023-02-22T13:36:12;100264.68;;;2.01;90.64
51526;BME280;37611;51.794;21.590;2023-02-22T13:53:22;100281.11;;;1.92;90.93
51526;BME280;37611;51.794;21.590;2023-02-22T13:57:43;100283.56;;;1.89;90.92
51526;BME280;37611;51.794;21.590;2023-02-22T14:01:50;100284.70;;;1.87;91.53
51526;BME280;37611;51.794;21.590;2023-02-22T14:05:55;100286.16;;;1.83;91.09
51526;BME280;37611;51.794;21.590;2023-02-22T14:10:01;100293.19;;;1.71;90.67
51526;BME280;37611;51.794;21.590;2023-02-22T14:18:15;100293.91;;;1.62;90.75
51526;BME280;37611;51.794;21.590;2023-02-22T14:22:25;100291.58;;;1.57;91.07
51526;BME280;37611;51.794;21.590;2023-02-22T14:26:33;100293.64;;;1.52;90.40
51526;BME280;37611;51.794;21.590;2023-02-22T14:30:37;100293.98;;;1.43;89.37
51526;BME280;37611;51.794;21.590;2023-02-22T14:34:50;100293.48;;;1.30;89.69
51526;BME280;37611;51.794;21.590;2023-02-22T14:38:59;100294.95;;;1.28;90.58
51526;BME280;37611;51.794;21.590;2023-02-22T14:47:07;100304.04;;;1.30;90.53
51526;BME280;37611;51.794;21.590;2023-02-22T14:55:25;100307.20;;;1.12;89.53
51526;BME280;37611;51.794;21.590;2023-02-22T14:59:29;100309.16;;;1.08;90.12
51526;BME280;37611;51.794;21.590;2023-02-22T15:03:33;100312.86;;;1.13;89.71
51526;BME280;37611;51.794;21.590;2023-02-22T15:07:38;100311.21;;;1.12;89.20
51526;BME280;37611;51.794;21.590;2023-02-22T15:11:39;100314.24;;;1.07;88.83
51526;BME280;37611;51.794;21.590;2023-02-22T15:15:43;100307.02;;;1.00;88.79
51526;BME280;37611;51.794;21.590;2023-02-22T15:19:46;100308.05;;;0.96;89.05
51526;BME280;37611;51.794;21.590;2023-02-22T15:23:50;100315.80;;;0.97;88.48
51526;BME280;37611;51.794;21.590;2023-02-22T15:27:52;100318.39;;;0.88;87.98
51526;BME280;37611;51.794;21.590;2023-02-22T15:31:54;100314.27;;;0.81;88.26
51526;BME280;37611;51.794;21.590;2023-02-22T15:35:57;100315.80;;;0.75;87.54
51526;BME280;37611;51.794;21.590;2023-02-22T15:40:07;100313.66;;;0.67;87.69
51526;BME280;37611;51.794;21.590;2023-02-22T15:44:14;100317.49;;;0.66;87.48
51526;BME280;37611;51.794;21.590;2023-02-22T15:48:16;100315.40;;;0.60;86.51
51526;BME280;37611;51.794;21.590;2023-02-22T15:52:22;100312.76;;;0.54;85.88
51526;BME280;37611;51.794;21.590;2023-02-22T15:56:28;100314.77;;;0.45;86.31
51526;BME280;37611;51.794;21.590;2023-02-22T16:00:34;100318.30;;;0.40;86.21
51526;BME280;37611;51.794;21.590;2023-02-22T16:04:36;100322.88;;;0.35;86.70
51526;BME280;37611;51.794;21.590;2023-02-22T16:08:46;100325.96;;;0.32;86.47
51526;BME280;37611;51.794;21.590;2023-02-22T16:13:08;100332.76;;;0.28;86.78
51526;BME280;37611;51.794;21.590;2023-02-22T16:17:38;100337.31;;;0.22;87.17
51526;BME280;37611;51.794;21.590;2023-02-22T16:21:53;100349.34;;;0.19;86.85
51526;BME280;37611;51.794;21.590;2023-02-22T16:26:17;100356.66;;;0.18;86.67
51526;BME280;37611;51.794;21.590;2023-02-22T16:30:21;100364.21;;;0.15;86.38
51526;BME280;37611;51.794;21.590;2023-02-22T16:34:22;100369.00;;;0.12;86.19
51526;BME280;37611;51.794;21.590;2023-02-22T16:38:24;100378.23;;;0.10;86.45
51526;BME280;37611;51.794;21.590;2023-02-22T16:42:27;100383.41;;;0.07;86.05
51526;BME280;37611;51.794;21.590;2023-02-22T16:46:29;100387.44;;;0.02;86.35
51526;BME280;37611;51.794;21.590;2023-02-22T16:50:31;100389.48;;;-0.02;86.26
51526;BME280;37611;51.794;21.590;2023-02-22T16:54:41;100391.11;;;-0.07;86.13
51526;BME280;37611;51.794;21.590;2023-02-22T16:58:44;100394.76;;;-0.11;85.84
51526;BME280;37611;51.794;21.590;2023-02-22T17:02:47;100399.67;;;-0.16;85.87
51526;BME280;37611;51.794;21.590;2023-02-22T17:06:49;100401.92;;;-0.20;85.76
51526;BME280;37611;51.794;21.590;2023-02-22T17:10:52;100400.11;;;-0.26;85.67
51526;BME280;37611;51.794;21.590;2023-02-22T17:14:57;100398.04;;;-0.32;85.31
51526;BME280;37611;51.794;21.590;2023-02-22T17:18:59;100410.02;;;-0.31;85.93
51526;BME280;37611;51.794;21.590;2023-02-22T17:23:03;100412.69;;;-0.30;86.15
51526;BME280;37611;51.794;21.590;2023-02-22T17:27:05;100407.11;;;-0.28;85.72
51526;BME280;37611;51.794;21.590;2023-02-22T17:31:07;100410.06;;;-0.32;85.69
51526;BME280;37611;51.794;21.590;2023-02-22T17:35:08;100414.85;;;-0.35;85.32
51526;BME280;37611;51.794;21.590;2023-02-22T17:39:10;100408.46;;;-0.42;85.39
51526;BME280;37611;51.794;21.590;2023-02-22T17:43:13;100413.77;;;-0.45;85.71
51526;BME280;37611;51.794;21.590;2023-02-22T17:47:15;100414.79;;;-0.48;85.73
51526;BME280;37611;51.794;21.590;2023-02-22T17:51:16;100417.80;;;-0.51;85.89
51526;BME280;37611;51.794;21.590;2023-02-22T17:55:19;100416.23;;;-0.54;85.60
51526;BME280;37611;51.794;21.590;2023-02-22T17:59:21;100417.44;;;-0.57;86.01
51526;BME280;37611;51.794;21.590;2023-02-22T18:03:24;100421.13;;;-0.59;86.25
51526;BME280;37611;51.794;21.590;2023-02-22T18:07:26;100423.51;;;-0.62;86.40
51526;BME280;37611;51.794;21.590;2023-02-22T18:11:31;100426.16;;;-0.64;86.83
51526;BME280;37611;51.794;21.590;2023-02-22T18:15:33;100427.73;;;-0.64;87.47
51526;BME280;37611;51.794;21.590;2023-02-22T18:19:36;100428.20;;;-0.59;87.63
51526;BME280;37611;51.794;21.590;2023-02-22T18:23:37;100434.02;;;-0.55;87.62
51526;BME280;37611;51.794;21.590;2023-02-22T18:27:40;100441.15;;;-0.53;87.48
51526;BME280;37611;51.794;21.590;2023-02-22T18:31:43;100438.92;;;-0.54;87.07
51526;BME280;37611;51.794;21.590;2023-02-22T18:35:47;100437.81;;;-0.56;86.37
51526;BME280;37611;51.794;21.590;2023-02-22T18:39:56;100442.27;;;-0.66;85.96
51526;BME280;37611;51.794;21.590;2023-02-22T18:43:58;100435.38;;;-0.74;85.40
51526;BME280;37611;51.794;21.590;2023-02-22T18:48:00;100431.84;;;-0.83;85.36
51526;BME280;37611;51.794;21.590;2023-02-22T18:52:02;100432.14;;;-0.89;85.59
51526;BME280;37611;51.794;21.590;2023-02-22T18:56:10;100434.22;;;-0.93;85.78
51526;BME280;37611;51.794;21.590;2023-02-22T19:00:15;100436.79;;;-0.97;85.31
51526;BME280;37611;51.794;21.590;2023-02-22T19:04:17;100437.46;;;-1.01;84.75
51526;BME280;37611;51.794;21.590;2023-02-22T19:08:19;100436.15;;;-1.06;84.06
51526;BME280;37611;51.794;21.590;2023-02-22T19:12:20;100438.42;;;-1.15;84.51
51526;BME280;37611;51.794;21.590;2023-02-22T19:16:24;100441.52;;;-1.19;84.24
51526;BME280;37611;51.794;21.590;2023-02-22T19:20:25;100442.81;;;-1.25;84.02
51526;BME280;37611;51.794;21.590;2023-02-22T19:24:33;100444.56;;;-1.30;84.38
51526;BME280;37611;51.794;21.590;2023-02-22T19:28:35;100451.17;;;-1.32;84.25
51526;BME280;37611;51.794;21.590;2023-02-22T19:32:37;100452.53;;;-1.31;82.98
51526;BME280;37611;51.794;21.590;2023-02-22T19:36:42;100467.51;;;-1.32;81.71
51526;BME280;37611;51.794;21.590;2023-02-22T19:40:46;100468.89;;;-1.32;81.49
51526;BME280;37611;51.794;21.590;2023-02-22T19:44:48;100473.98;;;-1.31;81.72
51526;BME280;37611;51.794;21.590;2023-02-22T19:48:53;100466.04;;;-1.30;81.22
51526;BME280;37611;51.794;21.590;2023-02-22T19:52:56;100458.94;;;-1.28;80.86
51526;BME280;37611;51.794;21.590;2023-02-22T19:56:57;100456.89;;;-1.29;81.10
51526;BME280;37611;51.794;21.590;2023-02-22T20:00:59;100462.57;;;-1.29;81.06
51526;BME280;37611;51.794;21.590;2023-02-22T20:05:01;100461.30;;;-1.27;81.39
51526;BME280;37611;51.794;21.590;2023-02-22T20:09:02;100456.96;;;-1.27;81.65
51526;BME280;37611;51.794;21.590;2023-02-22T20:13:04;100466.19;;;-1.25;81.77
51526;BME280;37611;51.794;21.590;2023-02-22T20:17:07;100475.95;;;-1.25;81.80
51526;BME280;37611;51.794;21.590;2023-02-22T20:21:15;100478.97;;;-1.23;81.73
51526;BME280;37611;51.794;21.590;2023-02-22T20:25:19;100480.38;;;-1.24;81.86
51526;BME280;37611;51.794;21.590;2023-02-22T20:29:21;100484.48;;;-1.23;81.98
51526;BME280;37611;51.794;21.590;2023-02-22T20:33:29;100482.52;;;-1.21;82.21
51526;BME280;37611;51.794;21.590;2023-02-22T20:37:32;100481.66;;;-1.21;81.99
51526;BME280;37611;51.794;21.590;2023-02-22T20:41:35;100480.39;;;-1.24;82.06
51526;BME280;37611;51.794;21.590;2023-02-22T20:45:37;100485.23;;;-1.24;81.88
51526;BME280;37611;51.794;21.590;2023-02-22T20:49:39;100490.07;;;-1.26;82.07
51526;BME280;37611;51.794;21.590;2023-02-22T20:53:41;100491.55;;;-1.27;81.30
51526;BME280;37611;51.794;21.590;2023-02-22T20:57:45;100488.79;;;-1.31;80.53
51526;BME280;37611;51.794;21.590;2023-02-22T21:01:47;100488.40;;;-1.35;80.83
51526;BME280;37611;51.794;21.590;2023-02-22T21:05:50;100486.59;;;-1.36;80.33
51526;BME280;37611;51.794;21.590;2023-02-22T21:09:52;100486.42;;;-1.40;80.62
51526;BME280;37611;51.794;21.590;2023-02-22T21:13:54;100486.14;;;-1.42;80.91
51526;BME280;37611;51.794;21.590;2023-02-22T21:17:55;100487.36;;;-1.42;81.39
51526;BME280;37611;51.794;21.590;2023-02-22T21:21:59;100491.33;;;-1.42;81.18
51526;BME280;37611;51.794;21.590;2023-02-22T21:26:03;100489.63;;;-1.47;81.20
51526;BME280;37611;51.794;21.590;2023-02-22T21:30:06;100489.35;;;-1.44;81.70
51526;BME280;37611;51.794;21.590;2023-02-22T21:34:11;100484.45;;;-1.43;81.72
51526;BME280;37611;51.794;21.590;2023-02-22T21:38:13;100484.18;;;-1.44;81.52
51526;BME280;37611;51.794;21.590;2023-02-22T21:42:15;100476.69;;;-1.46;81.72
51526;BME280;37611;51.794;21.590;2023-02-22T21:46:17;100474.15;;;-1.46;81.60
51526;BME280;37611;51.794;21.590;2023-02-22T21:50:20;100474.23;;;-1.49;81.90
51526;BME280;37611;51.794;21.590;2023-02-22T21:54:22;100474.04;;;-1.49;82.02
51526;BME280;37611;51.794;21.590;2023-02-22T21:58:23;100470.16;;;-1.50;82.04
51526;BME280;37611;51.794;21.590;2023-02-22T22:02:26;100471.16;;;-1.50;82.47
51526;BME280;37611;51.794;21.590;2023-02-22T22:06:31;100471.50;;;-1.49;82.42
51526;BME280;37611;51.794;21.590;2023-02-22T22:10:35;100471.02;;;-1.50;82.36
51526;BME280;37611;51.794;21.590;2023-02-22T22:14:36;100470.36;;;-1.51;82.48
51526;BME280;37611;51.794;21.590;2023-02-22T22:18:40;100476.77;;;-1.52;82.77
51526;BME280;37611;51.794;21.590;2023-02-22T22:22:43;100475.48;;;-1.50;82.94
51526;BME280;37611;51.794;21.590;2023-02-22T22:26:47;100475.74;;;-1.48;83.13
51526;BME280;37611;51.794;21.590;2023-02-22T22:30:51;100473.29;;;-1.46;83.20
51526;BME280;37611;51.794;21.590;2023-02-22T22:34:54;100466.88;;;-1.45;83.34
51526;BME280;37611;51.794;21.590;2023-02-22T22:38:59;100467.16;;;-1.44;83.63
51526;BME280;37611;51.794;21.590;2023-02-22T22:43:01;100469.92;;;-1.40;84.03
51526;BME280;37611;51.794;21.590;2023-02-22T22:47:03;100471.25;;;-1.35;84.40